Latest Weather Observations for Canterbury

IDN60801

Issued at 1:03 pm EST Wednesday 28 September 2016 (issued every 30 minutes, with the page automatically refreshed every 10 minutes)

About weather observations | Map of weather stations | Latest weather observations for NSW | Other Formats
Station Details ID: 066194 Name: CANTERBURY RACECOURSE AWS Lat: -33.91 Lon: 151.11 Height: 3.0 m
Data from the previous 72 hours. | See also: Recent months at Canterbury
Date/Time
EST
Temp
°C
App
Temp
°C
Dew
Point
°C
Rel
Hum
%
Delta-T
°C
Wind Press
QNH
hPa
Press
MSL
hPa
Rain since
9am
mm
Dir  Spd
km/h
Gust
km/h
Spd
kts
Gust
kts
28/01:00pm 20.0 17.7 4.9 37 7.3 SW 6 11 3 6 - - 0.0
28/12:30pm 18.8 15.4 3.8 37 7.1 ESE 11 19 6 10 - - 0.0
28/12:00pm 18.5 14.5 5.0 41 6.5 E 15 22 8 12 - - 0.0
28/11:30am 19.0 15.9 5.5 41 6.6 SE 11 24 6 13 - - 0.0
28/11:00am 18.3 13.9 4.8 41 6.5 ESE 17 26 9 14 - - 0.0
28/10:30am 18.6 15.6 4.0 38 6.9 SSW 9 17 5 9 - - 0.0
28/10:00am 17.7 15.2 5.0 43 6.1 W 7 15 4 8 - - 0.0
28/09:30am 17.0 14.4 5.9 48 5.4 NW 9 15 5 8 - - 0.0
28/09:00am 15.6 12.3 4.3 47 5.3 WSW 11 17 6 9 - - 0.0
28/08:30am 14.4 10.5 5.2 54 4.3 WSW 15 24 8 13 - - 0.0
28/08:00am 13.4 9.7 4.6 55 4.0 W 13 20 7 11 - - 0.0
28/07:30am 12.4 8.2 3.6 55 3.9 W 15 24 8 13 - - 0.0
28/07:00am 11.5 7.8 4.3 61 3.2 W 13 17 7 9 - - 0.0
28/06:30am 9.8 7.2 4.2 68 2.5 WSW 7 11 4 6 - - 0.0
28/06:00am 8.0 5.5 3.7 74 1.8 W 6 9 3 5 - - 0.0
28/05:30am 8.0 5.5 3.5 73 1.9 WNW 6 7 3 4 - - 0.0
28/05:00am 8.4 5.7 3.5 71 2.1 NW 7 9 4 5 - - 0.0
28/04:30am 8.7 6.0 3.5 70 2.2 WNW 7 9 4 5 - - 0.0
28/04:00am 9.4 6.8 3.2 65 2.7 WNW 6 9 3 5 - - 0.0
28/03:30am 9.6 6.9 2.9 63 2.9 WNW 6 11 3 6 - - 0.0
28/03:00am 10.6 7.4 2.9 59 3.3 WSW 9 17 5 9 - - 0.0
28/02:30am 10.8 6.8 2.9 58 3.4 SW 13 20 7 11 - - 0.0
28/02:00am 10.1 7.3 3.2 62 3.0 SW 7 15 4 8 - - 0.0
28/01:30am 9.4 6.7 2.5 62 2.9 WSW 6 9 3 5 - - 0.0
28/01:00am 9.8 6.8 2.2 59 3.2 WSW 7 9 4 5 - - 0.0
28/12:30am 10.2 7.4 1.8 56 3.5 SW 6 9 3 5 - - 0.0
28/12:00am 11.0 7.6 2.1 54 3.8 SW 9 15 5 8 - - 0.0
 
Date/Time
EST
Temp
°C
App
Temp
°C
Dew
Point
°C
Rel
Hum
%
Delta-T
°C
Wind Press
QNH
hPa
Press
MSL
hPa
Rain since
9am
mm
Dir  Spd
km/h
Gust
km/h
Spd
kts
Gust
kts
27/11:30pm 11.0 8.0 1.8 53 3.9 WSW 7 11 4 6 - - 0.0
27/11:00pm 11.4 8.3 1.6 51 4.1 SW 7 13 4 7 - - 0.0
27/10:30pm 12.1 9.0 1.4 48 4.5 SW 7 11 4 6 - - 0.0
27/10:00pm 12.4 8.9 1.4 47 4.7 SW 9 17 5 9 - - 0.0
27/09:30pm 12.5 9.4 1.5 47 4.7 WSW 7 13 4 7 - - 0.0
27/09:00pm 13.7 10.2 1.4 43 5.3 SW 9 15 5 8 - - 0.0
27/08:30pm 14.2 10.4 1.5 42 5.5 WSW 11 19 6 10 - - 0.0
27/08:00pm 14.5 10.5 0.7 39 5.9 WSW 11 17 6 9 - - 0.0
27/07:30pm 15.1 10.3 0.5 37 6.2 WSW 15 24 8 13 - - 0.0
27/07:00pm 15.4 10.6 0.0 35 6.5 WSW 15 24 8 13 - - 0.0
27/06:30pm 15.9 10.6 -0.3 33 6.8 SW 17 28 9 15 - - 0.0
27/06:00pm 16.5 9.9 -0.7 31 7.3 SW 24 39 13 21 - - 0.0
27/05:41pm 16.9 9.4 -1.2 29 7.6 SW 28 46 15 25 - - 0.0
27/05:30pm 17.4 10.0 -0.8 29 7.7 SW 28 44 15 24 - - 0.0
27/05:00pm 18.0 9.8 -1.3 27 8.1 WSW 32 52 17 28 - - 0.0
27/04:30pm 18.7 10.8 -1.2 26 8.5 SW 30 48 16 26 - - 0.0
27/04:04pm 19.4 11.8 -2.2 23 9.1 SW 28 46 15 25 - - 0.0
27/04:00pm 19.5 11.7 -1.0 25 8.8 SW 30 44 16 24 - - 0.0
27/03:30pm 20.2 12.3 -1.6 23 9.3 SW 30 48 16 26 - - 0.0
27/03:05pm 20.9 13.4 -1.6 22 9.7 SW 28 46 15 25 - - 0.0
27/03:00pm 21.0 13.1 -1.5 22 9.7 SW 30 43 16 23 - - 0.0
27/02:30pm 21.1 13.5 -2.0 21 9.9 SW 28 50 15 27 - - 0.0
27/02:00pm 21.7 13.5 -3.6 18 10.6 SW 30 48 16 26 - - 0.0
27/01:40pm 21.7 13.1 -4.4 17 10.7 SW 32 50 17 27 - - 0.0
27/01:30pm 21.9 14.0 -1.4 21 10.2 WSW 30 44 16 24 - - 0.0
27/01:00pm 22.7 14.4 -0.1 22 10.3 WSW 33 61 18 33 - - 0.0
27/12:37pm 22.1 14.7 -0.6 22 10.1 W 28 48 15 26 - - 0.0
27/12:30pm 22.3 16.1 1.9 26 9.5 WSW 24 39 13 21 - - 0.0
27/12:00pm 21.5 15.1 3.2 30 8.7 WSW 26 37 14 20 - - 0.0
27/11:30am 21.8 16.6 5.7 35 8.1 W 22 54 12 29 - - 0.0
27/11:00am 20.8 16.4 6.4 39 7.3 NW 19 32 10 17 - - 0.0
27/10:30am 19.6 15.2 4.9 38 7.1 NNW 17 24 9 13 - - 0.0
27/10:00am 19.1 15.0 7.8 48 5.8 N 19 30 10 16 - - 0.0
27/09:30am 18.2 13.6 5.4 43 6.2 N 19 33 10 18 - - 0.0
27/09:00am 17.4 12.6 5.7 46 5.7 N 20 28 11 15 - - 0.0
27/08:30am 16.6 11.8 4.6 45 5.7 NNW 19 28 10 15 - - 0.0
27/08:00am 15.1 11.3 5.6 53 4.5 N 15 22 8 12 - - 0.0
27/07:30am 11.6 10.8 6.3 70 2.5 CALM 0 0 0 0 - - 0.0
27/07:00am 9.6 8.2 5.6 76 1.8 W 2 7 1 4 - - 0.0
27/06:30am 9.2 6.9 5.0 75 1.9 W 6 11 3 6 - - 0.0
27/06:00am 8.9 7.8 4.9 76 1.8 CALM 0 7 0 4 - - 0.0
27/05:30am 8.7 7.1 4.7 76 1.8 WNW 2 7 1 4 - - 0.0
27/05:00am 8.6 6.2 4.4 75 1.8 WNW 6 9 3 5 - - 0.0
27/04:30am 8.1 5.6 3.9 75 1.8 WNW 6 9 3 5 - - 0.0
27/04:00am 9.0 6.5 3.6 69 2.3 WNW 6 9 3 5 - - 0.0
27/03:30am 8.8 6.2 3.2 68 2.4 NW 6 15 3 8 - - 0.0
27/03:00am 9.4 6.6 3.2 65 2.7 WNW 7 11 4 6 - - 0.0
27/02:30am 9.7 6.9 3.4 65 2.7 WNW 7 9 4 5 - - 0.0
27/02:00am 9.7 7.0 3.7 66 2.6 W 7 11 4 6 - - 0.0
27/01:30am 10.5 8.0 3.5 62 3.1 NW 6 9 3 5 - - 0.0
27/01:00am 11.2 8.4 3.3 58 3.5 WNW 7 9 4 5 - - 0.0
27/12:30am 12.2 7.9 3.2 54 4.0 SW 15 22 8 12 - - 0.0
27/12:00am 10.9 8.4 3.5 60 3.2 WSW 6 9 3 5 - - 0.0
 
Date/Time
EST
Temp
°C
App
Temp
°C
Dew
Point
°C
Rel
Hum
%
Delta-T
°C
Wind Press
QNH
hPa
Press
MSL
hPa
Rain since
9am
mm
Dir  Spd
km/h
Gust
km/h
Spd
kts
Gust
kts
26/11:30pm 11.1 8.6 3.6 60 3.3 WNW 6 9 3 5 - - 0.0
26/11:00pm 11.3 8.7 3.3 58 3.5 WNW 6 7 3 4 - - 0.0
26/10:30pm 11.0 8.2 3.3 59 3.4 WNW 7 11 4 6 - - 0.0
26/10:00pm 10.9 9.0 2.7 57 3.5 WNW 2 6 1 3 - - 0.0
26/09:30pm 12.9 10.1 3.3 52 4.3 NW 7 13 4 7 - - 0.0
26/09:00pm 13.2 10.6 3.0 50 4.5 WNW 6 11 3 6 - - 0.0
26/08:30pm 14.3 11.4 2.5 45 5.2 W 7 11 4 6 - - 0.0
26/08:00pm 15.2 11.5 2.4 42 5.7 WSW 11 19 6 10 - - 0.0
26/07:30pm 13.3 11.3 6.4 63 3.3 W 6 9 3 5 - - 0.0
26/07:00pm 14.2 13.1 6.8 61 3.6 SW 2 9 1 5 - - 0.0
26/06:30pm 15.2 13.2 7.3 59 3.9 S 7 11 4 6 - - 0.0
26/06:00pm 15.9 13.6 7.4 57 4.2 SSE 9 13 5 7 - - 0.0
26/05:30pm 16.4 13.1 7.9 57 4.3 SE 15 19 8 10 - - 0.0
26/05:00pm 16.6 13.1 7.3 54 4.6 SSE 15 22 8 12 - - 0.0
26/04:30pm 16.8 13.0 7.7 55 4.6 SE 17 22 9 12 - - 0.0
26/04:00pm 17.5 13.3 7.5 52 5.0 SSE 19 28 10 15 - - 0.0
26/03:30pm 17.6 13.8 7.6 52 5.0 SE 17 24 9 13 - - 0.0
26/03:00pm 18.2 13.9 7.0 48 5.6 SE 19 24 10 13 - - 0.0
26/02:30pm 18.2 13.2 6.4 46 5.8 SE 22 32 12 17 - - 0.0
26/02:00pm 18.7 14.6 6.2 44 6.2 SE 17 26 9 14 - - 0.0
26/01:30pm 18.7 14.2 5.9 43 6.3 SE 19 24 10 13 - - 0.0
26/01:00pm 20.4 17.9 4.8 36 7.6 NW 7 15 4 8 - - 0.0
26/12:30pm 19.1 14.7 4.8 39 6.9 W 17 24 9 13 - - 0.0
26/12:00pm 18.7 15.9 3.3 36 7.2 SSW 7 13 4 7 - - 0.0
26/11:30am 18.3 15.4 4.8 41 6.5 NNW 9 19 5 10 - - 0.0
26/11:00am 18.0 14.7 4.6 41 6.4 W 11 30 6 16 - - 0.0
26/10:30am 17.1 12.4 3.1 39 6.4 SW 17 24 9 13 - - 0.0
26/10:00am 16.7 12.2 4.1 43 5.9 SW 17 28 9 15 - - 0.0
26/09:30am 16.2 11.7 4.3 45 5.6 SW 17 26 9 14 - - 0.0
26/09:00am 15.5 11.1 4.6 48 5.1 SW 17 26 9 14 - - 0.8
26/08:30am 14.9 9.8 4.3 49 4.9 SW 20 33 11 18 - - 0.8
26/08:00am 14.4 10.1 5.2 54 4.3 SW 17 22 9 12 - - 0.8
26/07:30am 13.2 10.1 5.4 59 3.6 SW 11 19 6 10 - - 0.8
26/07:00am 12.2 9.0 4.9 61 3.3 SW 11 15 6 8 - - 0.8
26/06:30am 11.2 8.2 5.9 70 2.5 SW 11 15 6 8 - - 0.8
26/06:00am 8.8 6.6 6.3 84 1.1 SW 7 13 4 7 - - 0.8
26/05:30am 8.9 7.8 6.9 87 0.9 SW 2 13 1 7 - - 0.8
26/05:00am 9.0 8.3 8.6 97 0.2 S 2 7 1 4 - - 0.8
26/04:47am 9.5 8.5 9.0 97 0.2 S 4 7 2 4 - - 0.8
26/04:30am 8.9 8.5 8.3 96 0.3 CALM 0 0 0 0 - - 0.8
26/04:27am 9.1 8.7 8.3 95 0.4 CALM 0 0 0 0 - - 0.8
26/04:00am 10.0 8.8 9.7 98 0.2 WSW 6 7 3 4 - - 0.8
26/03:30am 10.0 9.9 9.4 96 0.3 CALM 0 0 0 0 - - 0.8
26/03:00am 10.1 10.0 9.6 97 0.2 CALM 0 4 0 2 - - 0.8
26/02:30am 10.6 10.2 9.8 95 0.4 WSW 2 7 1 4 - - 0.8
26/02:00am 10.4 10.3 9.3 93 0.5 CALM 0 0 0 0 - - 0.8
26/01:30am 11.0 10.9 9.4 90 0.8 CALM 0 0 0 0 - - 0.8
26/01:00am 12.0 11.8 10.6 91 0.7 W 2 6 1 3 - - 0.8
26/12:30am 12.5 12.6 10.2 86 1.2 CALM 0 2 0 1 - - 0.8
26/12:28am 12.5 12.6 10.2 86 1.2 CALM 0 4 0 2 - - 0.8
26/12:14am 12.7 11.5 10.2 85 1.3 W 7 9 4 5 - - 0.8
26/12:00am 13.3 12.4 10.7 84 1.4 WSW 6 9 3 5 - - 0.8
 
Date/Time
EST
Temp
°C
App
Temp
°C
Dew
Point
°C
Rel
Hum
%
Delta-T
°C
Wind Press
QNH
hPa
Press
MSL
hPa
Rain since
9am
mm
Dir  Spd
km/h
Gust
km/h
Spd
kts
Gust
kts
25/11:30pm 14.0 13.1 10.8 81 1.7 WSW 6 11 3 6 - - 0.8
25/11:27pm 14.0 13.1 10.8 81 1.7 WSW 6 11 3 6 - - 0.8
25/11:00pm 14.0 13.0 11.0 82 1.6 WSW 7 13 4 7 - - 0.8
25/10:39pm 13.9 12.6 11.1 83 1.5 WSW 9 15 5 8 - - 0.8
25/10:30pm 13.4 12.6 10.9 85 1.3 WSW 6 13 3 7 - - 0.8
25/10:00pm 13.5 12.9 10.5 82 1.6 WSW 4 7 2 4 - - 0.8
25/09:30pm 14.1 13.0 10.7 80 1.8 WSW 7 9 4 5 - - 0.8
25/09:00pm 14.8 14.0 11.0 78 2.0 SSW 6 9 3 5 - - 0.8
25/08:30pm 15.0 14.1 11.4 79 1.9 SW 7 11 4 6 - - 0.8
25/08:00pm 14.9 14.1 11.1 78 2.0 SW 6 11 3 6 - - 0.8
25/07:30pm 15.3 14.0 11.1 76 2.2 S 9 15 5 8 - - 0.8
25/07:00pm 15.2 15.3 10.0 71 2.7 CALM 0 0 0 0 - - 0.8
25/06:30pm 15.9 13.7 10.7 71 2.8 S 13 22 7 12 - - 0.8
25/06:00pm 16.1 14.3 10.8 71 2.8 S 11 19 6 10 - - 0.8
25/05:30pm 16.5 14.2 11.6 73 2.7 SSE 15 24 8 13 - - 0.8
25/05:02pm 16.6 15.0 11.7 73 2.7 SSE 11 17 6 9 - - 0.8
25/05:00pm 16.5 14.9 11.6 73 2.7 SSE 11 17 6 9 - - 0.8
25/04:48pm 16.7 14.7 11.4 71 2.9 SSE 13 22 7 12 - - 0.6
25/04:30pm 17.1 15.8 11.2 68 3.2 SSE 9 15 5 8 - - 0.4
25/04:00pm 17.6 15.5 11.2 66 3.5 SSE 13 22 7 12 - - 0.4
25/03:30pm 17.2 14.6 10.8 66 3.4 SE 15 20 8 11 - - 0.4
25/03:00pm 16.0 14.4 11.4 74 2.5 SSE 11 17 6 9 - - 0.4
25/02:30pm 17.2 15.0 12.1 72 2.8 SE 15 26 8 14 - - 0.0
25/02:00pm 18.0 15.7 11.8 67 3.4 SE 15 22 8 12 - - 0.0
25/01:30pm 17.7 14.4 11.5 67 3.4 SE 20 30 11 16 - - 0.0

Other Formats:

Comma delimited format used in spreadsheet applications
http://www.bom.gov.au/fwo/IDN60801/IDN60801.94766.axf

JavaScript Object Notation format (JSON) in row-major order
http://www.bom.gov.au/fwo/IDN60801/IDN60801.94766.json